sensor_id;sensor_type;location;lat;lon;timestamp;P1;durP1;ratioP1;P2;durP2;ratioP2
21168;SDS011;10742;51.816;8.662;2022-07-21T00:01:59;1999.90;;;923.35;;
21168;SDS011;10742;51.816;8.662;2022-07-21T00:05:21;1999.90;;;995.03;;
21168;SDS011;10742;51.816;8.662;2022-07-21T00:08:42;1999.90;;;951.97;;
21168;SDS011;10742;51.816;8.662;2022-07-21T00:12:04;1999.90;;;957.53;;
21168;SDS011;10742;51.816;8.662;2022-07-21T00:15:26;1999.90;;;973.05;;
21168;SDS011;10742;51.816;8.662;2022-07-21T00:18:47;1999.90;;;900.50;;
21168;SDS011;10742;51.816;8.662;2022-07-21T00:22:09;1999.90;;;895.70;;
21168;SDS011;10742;51.816;8.662;2022-07-21T00:25:31;1999.90;;;985.53;;
21168;SDS011;10742;51.816;8.662;2022-07-21T00:28:53;1999.90;;;999.90;;
21168;SDS011;10742;51.816;8.662;2022-07-21T00:32:15;1999.90;;;999.90;;
21168;SDS011;10742;51.816;8.662;2022-07-21T00:35:36;1999.90;;;999.90;;
21168;SDS011;10742;51.816;8.662;2022-07-21T00:38:57;1999.90;;;999.90;;
21168;SDS011;10742;51.816;8.662;2022-07-21T00:42:29;1999.90;;;999.90;;
21168;SDS011;10742;51.816;8.662;2022-07-21T00:45:54;1999.90;;;999.90;;
21168;SDS011;10742;51.816;8.662;2022-07-21T00:49:16;1999.90;;;999.90;;
21168;SDS011;10742;51.816;8.662;2022-07-21T00:52:38;1999.90;;;999.90;;
21168;SDS011;10742;51.816;8.662;2022-07-21T00:56:00;1999.90;;;999.90;;
21168;SDS011;10742;51.816;8.662;2022-07-21T00:59:21;1999.90;;;999.90;;
21168;SDS011;10742;51.816;8.662;2022-07-21T01:02:43;1999.90;;;996.67;;
21168;SDS011;10742;51.816;8.662;2022-07-21T01:06:05;1999.90;;;999.90;;
21168;SDS011;10742;51.816;8.662;2022-07-21T01:09:27;1999.90;;;999.90;;
21168;SDS011;10742;51.816;8.662;2022-07-21T01:12:48;1999.90;;;999.90;;
21168;SDS011;10742;51.816;8.662;2022-07-21T01:16:10;1999.90;;;999.90;;
21168;SDS011;10742;51.816;8.662;2022-07-21T01:19:31;1999.90;;;999.90;;
21168;SDS011;10742;51.816;8.662;2022-07-21T01:22:53;1999.90;;;999.90;;
21168;SDS011;10742;51.816;8.662;2022-07-21T01:26:16;1999.90;;;999.90;;
21168;SDS011;10742;51.816;8.662;2022-07-21T01:29:38;1999.90;;;999.90;;
21168;SDS011;10742;51.816;8.662;2022-07-21T01:32:59;1999.90;;;999.90;;
21168;SDS011;10742;51.816;8.662;2022-07-21T01:36:20;1999.90;;;999.90;;
21168;SDS011;10742;51.816;8.662;2022-07-21T01:39:42;1999.90;;;999.90;;
21168;SDS011;10742;51.816;8.662;2022-07-21T01:43:21;1999.90;;;999.90;;
21168;SDS011;10742;51.816;8.662;2022-07-21T01:46:44;1999.90;;;999.90;;
21168;SDS011;10742;51.816;8.662;2022-07-21T01:50:07;1999.90;;;999.90;;
21168;SDS011;10742;51.816;8.662;2022-07-21T01:53:28;1999.90;;;999.90;;
21168;SDS011;10742;51.816;8.662;2022-07-21T01:56:50;1999.90;;;999.90;;
21168;SDS011;10742;51.816;8.662;2022-07-21T02:00:12;1999.90;;;999.90;;
21168;SDS011;10742;51.816;8.662;2022-07-21T02:03:33;1999.90;;;999.90;;
21168;SDS011;10742;51.816;8.662;2022-07-21T02:06:55;1999.90;;;999.90;;
21168;SDS011;10742;51.816;8.662;2022-07-21T02:10:17;1999.90;;;990.45;;
21168;SDS011;10742;51.816;8.662;2022-07-21T02:13:38;1999.90;;;999.90;;
21168;SDS011;10742;51.816;8.662;2022-07-21T02:17:00;1999.90;;;999.90;;
21168;SDS011;10742;51.816;8.662;2022-07-21T02:20:21;1999.90;;;999.90;;
21168;SDS011;10742;51.816;8.662;2022-07-21T02:23:44;1999.90;;;999.90;;
21168;SDS011;10742;51.816;8.662;2022-07-21T02:27:05;1999.90;;;999.90;;
21168;SDS011;10742;51.816;8.662;2022-07-21T02:30:26;1999.90;;;999.90;;
21168;SDS011;10742;51.816;8.662;2022-07-21T02:33:47;1999.90;;;999.90;;
21168;SDS011;10742;51.816;8.662;2022-07-21T02:37:09;1999.90;;;999.90;;
21168;SDS011;10742;51.816;8.662;2022-07-21T02:40:30;1999.90;;;999.90;;
21168;SDS011;10742;51.816;8.662;2022-07-21T02:43:52;1999.90;;;999.90;;
21168;SDS011;10742;51.816;8.662;2022-07-21T02:47:13;1999.90;;;999.90;;
21168;SDS011;10742;51.816;8.662;2022-07-21T02:50:37;1999.90;;;999.90;;
21168;SDS011;10742;51.816;8.662;2022-07-21T02:53:59;1999.90;;;999.90;;
21168;SDS011;10742;51.816;8.662;2022-07-21T02:57:21;1999.90;;;999.90;;
21168;SDS011;10742;51.816;8.662;2022-07-21T03:00:52;1999.90;;;999.90;;
21168;SDS011;10742;51.816;8.662;2022-07-21T03:04:16;1999.90;;;999.90;;
21168;SDS011;10742;51.816;8.662;2022-07-21T03:07:37;1999.90;;;999.90;;
21168;SDS011;10742;51.816;8.662;2022-07-21T03:10:58;1999.90;;;999.90;;
21168;SDS011;10742;51.816;8.662;2022-07-21T03:14:19;1999.90;;;999.90;;
21168;SDS011;10742;51.816;8.662;2022-07-21T03:17:41;1999.90;;;999.90;;
21168;SDS011;10742;51.816;8.662;2022-07-21T03:21:02;1999.90;;;995.38;;
21168;SDS011;10742;51.816;8.662;2022-07-21T03:24:24;1999.90;;;997.33;;
21168;SDS011;10742;51.816;8.662;2022-07-21T03:27:46;1999.90;;;997.50;;
21168;SDS011;10742;51.816;8.662;2022-07-21T03:31:08;1999.90;;;999.90;;
21168;SDS011;10742;51.816;8.662;2022-07-21T03:34:30;1999.90;;;999.90;;
21168;SDS011;10742;51.816;8.662;2022-07-21T03:37:52;1999.90;;;998.13;;
21168;SDS011;10742;51.816;8.662;2022-07-21T03:41:15;1999.90;;;943.58;;
21168;SDS011;10742;51.816;8.662;2022-07-21T03:44:37;1999.90;;;992.75;;
21168;SDS011;10742;51.816;8.662;2022-07-21T03:47:59;1999.90;;;999.90;;
21168;SDS011;10742;51.816;8.662;2022-07-21T03:51:21;1999.90;;;946.45;;
21168;SDS011;10742;51.816;8.662;2022-07-21T03:54:42;1999.90;;;907.55;;
21168;SDS011;10742;51.816;8.662;2022-07-21T03:58:04;1999.90;;;978.65;;
21168;SDS011;10742;51.816;8.662;2022-07-21T04:01:27;1999.90;;;894.95;;
21168;SDS011;10742;51.816;8.662;2022-07-21T04:04:48;1999.90;;;999.90;;
21168;SDS011;10742;51.816;8.662;2022-07-21T04:08:10;1999.90;;;908.92;;
21168;SDS011;10742;51.816;8.662;2022-07-21T04:11:33;1999.90;;;999.05;;
21168;SDS011;10742;51.816;8.662;2022-07-21T04:14:54;1999.90;;;999.90;;
21168;SDS011;10742;51.816;8.662;2022-07-21T04:18:16;1999.90;;;994.63;;
21168;SDS011;10742;51.816;8.662;2022-07-21T04:21:37;1999.90;;;936.10;;
21168;SDS011;10742;51.816;8.662;2022-07-21T04:24:59;1999.90;;;934.42;;
21168;SDS011;10742;51.816;8.662;2022-07-21T04:28:21;1999.90;;;960.72;;
21168;SDS011;10742;51.816;8.662;2022-07-21T04:31:42;1999.90;;;888.25;;
21168;SDS011;10742;51.816;8.662;2022-07-21T04:35:04;1999.90;;;932.33;;
21168;SDS011;10742;51.816;8.662;2022-07-21T04:38:26;1999.90;;;906.63;;
21168;SDS011;10742;51.816;8.662;2022-07-21T04:41:48;1999.90;;;945.95;;
21168;SDS011;10742;51.816;8.662;2022-07-21T04:45:10;1999.90;;;999.90;;
21168;SDS011;10742;51.816;8.662;2022-07-21T04:48:32;1999.90;;;868.75;;
21168;SDS011;10742;51.816;8.662;2022-07-21T04:51:54;1999.90;;;955.03;;
21168;SDS011;10742;51.816;8.662;2022-07-21T04:55:17;1999.90;;;988.33;;
21168;SDS011;10742;51.816;8.662;2022-07-21T04:58:40;1999.90;;;970.17;;
21168;SDS011;10742;51.816;8.662;2022-07-21T05:02:02;1999.90;;;983.00;;
21168;SDS011;10742;51.816;8.662;2022-07-21T05:05:24;1999.90;;;966.47;;
21168;SDS011;10742;51.816;8.662;2022-07-21T05:08:45;1999.90;;;991.63;;
21168;SDS011;10742;51.816;8.662;2022-07-21T05:12:08;1999.90;;;994.92;;
21168;SDS011;10742;51.816;8.662;2022-07-21T05:15:29;1999.90;;;996.30;;
21168;SDS011;10742;51.816;8.662;2022-07-21T05:18:50;1999.90;;;999.90;;
21168;SDS011;10742;51.816;8.662;2022-07-21T05:22:12;1999.90;;;999.90;;
21168;SDS011;10742;51.816;8.662;2022-07-21T05:25:33;1999.90;;;999.90;;
21168;SDS011;10742;51.816;8.662;2022-07-21T05:28:56;1999.90;;;999.90;;
21168;SDS011;10742;51.816;8.662;2022-07-21T05:32:17;1999.90;;;999.90;;
21168;SDS011;10742;51.816;8.662;2022-07-21T05:35:39;1999.90;;;999.90;;
21168;SDS011;10742;51.816;8.662;2022-07-21T05:39:00;1999.90;;;999.90;;
21168;SDS011;10742;51.816;8.662;2022-07-21T05:42:21;1999.90;;;999.90;;
21168;SDS011;10742;51.816;8.662;2022-07-21T05:45:42;1999.90;;;999.90;;
21168;SDS011;10742;51.816;8.662;2022-07-21T05:49:04;1999.90;;;999.90;;
21168;SDS011;10742;51.816;8.662;2022-07-21T05:52:25;1999.90;;;999.90;;
21168;SDS011;10742;51.816;8.662;2022-07-21T05:55:47;1999.90;;;999.90;;
21168;SDS011;10742;51.816;8.662;2022-07-21T05:59:08;1999.90;;;999.90;;
21168;SDS011;10742;51.816;8.662;2022-07-21T06:02:29;1999.90;;;999.90;;
21168;SDS011;10742;51.816;8.662;2022-07-21T06:05:52;1999.90;;;999.90;;
21168;SDS011;10742;51.816;8.662;2022-07-21T06:09:13;1999.90;;;999.90;;
21168;SDS011;10742;51.816;8.662;2022-07-21T06:12:35;1999.90;;;999.90;;
21168;SDS011;10742;51.816;8.662;2022-07-21T06:15:56;1999.90;;;999.90;;
21168;SDS011;10742;51.816;8.662;2022-07-21T06:19:17;1999.90;;;999.90;;
21168;SDS011;10742;51.816;8.662;2022-07-21T06:22:39;1999.90;;;981.65;;
21168;SDS011;10742;51.816;8.662;2022-07-21T06:26:01;1999.90;;;806.38;;
21168;SDS011;10742;51.816;8.662;2022-07-21T06:29:22;1999.90;;;832.55;;
21168;SDS011;10742;51.816;8.662;2022-07-21T06:32:44;1999.90;;;861.70;;
21168;SDS011;10742;51.816;8.662;2022-07-21T06:36:06;1999.90;;;813.13;;
21168;SDS011;10742;51.816;8.662;2022-07-21T06:39:28;1999.90;;;684.03;;
21168;SDS011;10742;51.816;8.662;2022-07-21T06:42:49;1999.90;;;895.85;;
21168;SDS011;10742;51.816;8.662;2022-07-21T06:46:27;1999.90;;;979.28;;
21168;SDS011;10742;51.816;8.662;2022-07-21T06:49:49;1999.90;;;998.65;;
21168;SDS011;10742;51.816;8.662;2022-07-21T06:53:10;1999.90;;;907.13;;
21168;SDS011;10742;51.816;8.662;2022-07-21T06:56:31;1999.90;;;805.97;;
21168;SDS011;10742;51.816;8.662;2022-07-21T06:59:53;1999.90;;;858.55;;
21168;SDS011;10742;51.816;8.662;2022-07-21T07:03:14;1999.90;;;622.05;;
21168;SDS011;10742;51.816;8.662;2022-07-21T07:06:36;1999.90;;;821.05;;
21168;SDS011;10742;51.816;8.662;2022-07-21T07:09:57;1999.90;;;750.40;;
21168;SDS011;10742;51.816;8.662;2022-07-21T07:13:20;1999.90;;;778.67;;
21168;SDS011;10742;51.816;8.662;2022-07-21T07:17:02;1999.90;;;851.50;;
21168;SDS011;10742;51.816;8.662;2022-07-21T07:20:25;1999.90;;;823.67;;
21168;SDS011;10742;51.816;8.662;2022-07-21T07:23:46;1999.90;;;892.65;;
21168;SDS011;10742;51.816;8.662;2022-07-21T07:27:07;1999.90;;;844.88;;
21168;SDS011;10742;51.816;8.662;2022-07-21T07:30:29;1999.90;;;832.05;;
21168;SDS011;10742;51.816;8.662;2022-07-21T07:33:50;1999.90;;;799.92;;
21168;SDS011;10742;51.816;8.662;2022-07-21T07:37:11;1999.90;;;837.47;;
21168;SDS011;10742;51.816;8.662;2022-07-21T07:40:33;1999.90;;;725.42;;
21168;SDS011;10742;51.816;8.662;2022-07-21T07:43:57;1999.90;;;685.45;;
21168;SDS011;10742;51.816;8.662;2022-07-21T07:47:20;1999.90;;;722.17;;
21168;SDS011;10742;51.816;8.662;2022-07-21T07:50:42;1999.90;;;832.17;;
21168;SDS011;10742;51.816;8.662;2022-07-21T07:54:03;1999.90;;;841.90;;
21168;SDS011;10742;51.816;8.662;2022-07-21T07:57:24;1999.90;;;892.08;;
21168;SDS011;10742;51.816;8.662;2022-07-21T08:00:45;1999.90;;;687.17;;
21168;SDS011;10742;51.816;8.662;2022-07-21T08:04:15;1999.90;;;949.35;;
21168;SDS011;10742;51.816;8.662;2022-07-21T08:07:37;1999.90;;;891.38;;
21168;SDS011;10742;51.816;8.662;2022-07-21T08:10:59;1999.90;;;853.33;;
21168;SDS011;10742;51.816;8.662;2022-07-21T08:14:20;1039.28;;;290.27;;
21168;SDS011;10742;51.816;8.662;2022-07-21T08:17:42;1420.63;;;374.70;;
21168;SDS011;10742;51.816;8.662;2022-07-21T08:21:03;707.72;;;219.55;;
21168;SDS011;10742;51.816;8.662;2022-07-21T08:24:25;434.80;;;131.10;;
21168;SDS011;10742;51.816;8.662;2022-07-21T08:27:46;338.50;;;99.68;;
21168;SDS011;10742;51.816;8.662;2022-07-21T08:31:07;102.80;;;35.45;;
21168;SDS011;10742;51.816;8.662;2022-07-21T08:34:29;103.45;;;36.38;;
21168;SDS011;10742;51.816;8.662;2022-07-21T08:37:55;80.35;;;34.38;;
21168;SDS011;10742;51.816;8.662;2022-07-21T08:41:22;24.45;;;16.70;;
21168;SDS011;10742;51.816;8.662;2022-07-21T08:44:44;29.60;;;17.40;;
21168;SDS011;10742;51.816;8.662;2022-07-21T08:48:05;46.58;;;25.25;;
21168;SDS011;10742;51.816;8.662;2022-07-21T08:51:28;47.72;;;23.50;;
21168;SDS011;10742;51.816;8.662;2022-07-21T08:54:55;54.67;;;25.77;;
21168;SDS011;10742;51.816;8.662;2022-07-21T08:58:17;17.65;;;12.85;;
21168;SDS011;10742;51.816;8.662;2022-07-21T09:01:39;17.00;;;12.68;;
21168;SDS011;10742;51.816;8.662;2022-07-21T09:05:01;18.50;;;12.63;;
21168;SDS011;10742;51.816;8.662;2022-07-21T09:08:28;17.80;;;13.50;;
21168;SDS011;10742;51.816;8.662;2022-07-21T09:11:51;17.52;;;13.18;;
21168;SDS011;10742;51.816;8.662;2022-07-21T09:15:13;16.60;;;13.80;;
21168;SDS011;10742;51.816;8.662;2022-07-21T09:18:47;18.50;;;13.88;;
21168;SDS011;10742;51.816;8.662;2022-07-21T09:22:13;16.13;;;14.27;;
21168;SDS011;10742;51.816;8.662;2022-07-21T09:29:09;15.57;;;12.65;;
21168;SDS011;10742;51.816;8.662;2022-07-21T09:32:32;19.23;;;12.18;;
21168;SDS011;10742;51.816;8.662;2022-07-21T09:35:56;15.32;;;10.52;;
21168;SDS011;10742;51.816;8.662;2022-07-21T09:39:39;18.77;;;14.38;;
21168;SDS011;10742;51.816;8.662;2022-07-21T09:43:07;20.85;;;14.90;;
21168;SDS011;10742;51.816;8.662;2022-07-21T09:46:29;28.33;;;17.40;;
21168;SDS011;10742;51.816;8.662;2022-07-21T09:49:50;23.42;;;16.77;;
21168;SDS011;10742;51.816;8.662;2022-07-21T09:53:48;19.13;;;15.73;;
21168;SDS011;10742;51.816;8.662;2022-07-21T09:57:11;20.33;;;16.80;;
21168;SDS011;10742;51.816;8.662;2022-07-21T10:00:33;24.67;;;16.83;;
21168;SDS011;10742;51.816;8.662;2022-07-21T10:03:56;25.40;;;17.10;;
21168;SDS011;10742;51.816;8.662;2022-07-21T10:07:18;15.98;;;12.10;;
21168;SDS011;10742;51.816;8.662;2022-07-21T10:10:42;16.60;;;14.68;;
21168;SDS011;10742;51.816;8.662;2022-07-21T10:14:23;16.13;;;14.15;;
21168;SDS011;10742;51.816;8.662;2022-07-21T10:17:45;15.25;;;11.07;;
21168;SDS011;10742;51.816;8.662;2022-07-21T10:21:25;12.45;;;10.02;;
21168;SDS011;10742;51.816;8.662;2022-07-21T10:25:00;12.38;;;9.95;;
21168;SDS011;10742;51.816;8.662;2022-07-21T10:28:22;12.02;;;8.00;;
21168;SDS011;10742;51.816;8.662;2022-07-21T10:31:44;11.52;;;6.85;;
21168;SDS011;10742;51.816;8.662;2022-07-21T10:42:29;6.57;;;5.00;;
21168;SDS011;10742;51.816;8.662;2022-07-21T10:45:50;12.13;;;5.05;;
21168;SDS011;10742;51.816;8.662;2022-07-21T10:49:13;8.02;;;4.80;;
21168;SDS011;10742;51.816;8.662;2022-07-21T10:53:16;8.93;;;6.20;;
21168;SDS011;10742;51.816;8.662;2022-07-21T10:56:38;7.20;;;5.78;;
21168;SDS011;10742;51.816;8.662;2022-07-21T11:00:19;7.65;;;6.57;;
21168;SDS011;10742;51.816;8.662;2022-07-21T11:03:45;11.40;;;7.70;;
21168;SDS011;10742;51.816;8.662;2022-07-21T11:07:46;13.02;;;10.82;;
21168;SDS011;10742;51.816;8.662;2022-07-21T11:11:26;9.57;;;7.13;;
21168;SDS011;10742;51.816;8.662;2022-07-21T11:14:49;9.00;;;6.63;;
21168;SDS011;10742;51.816;8.662;2022-07-21T11:18:16;7.60;;;5.93;;
21168;SDS011;10742;51.816;8.662;2022-07-21T11:21:45;8.23;;;6.00;;
21168;SDS011;10742;51.816;8.662;2022-07-21T11:25:08;6.68;;;4.78;;
21168;SDS011;10742;51.816;8.662;2022-07-21T11:28:29;7.63;;;5.45;;
21168;SDS011;10742;51.816;8.662;2022-07-21T11:31:51;6.55;;;5.05;;
21168;SDS011;10742;51.816;8.662;2022-07-21T11:35:13;7.07;;;4.68;;
21168;SDS011;10742;51.816;8.662;2022-07-21T11:38:34;6.63;;;4.68;;
21168;SDS011;10742;51.816;8.662;2022-07-21T11:42:01;6.80;;;4.72;;
21168;SDS011;10742;51.816;8.662;2022-07-21T11:45:24;6.53;;;4.32;;
21168;SDS011;10742;51.816;8.662;2022-07-21T11:48:59;5.18;;;4.50;;
21168;SDS011;10742;51.816;8.662;2022-07-21T11:52:31;9.77;;;4.68;;
21168;SDS011;10742;51.816;8.662;2022-07-21T11:55:54;6.15;;;5.50;;
21168;SDS011;10742;51.816;8.662;2022-07-21T11:59:16;8.73;;;5.22;;
21168;SDS011;10742;51.816;8.662;2022-07-21T12:02:37;6.43;;;4.50;;
21168;SDS011;10742;51.816;8.662;2022-07-21T12:06:00;8.52;;;7.03;;
21168;SDS011;10742;51.816;8.662;2022-07-21T12:09:22;9.60;;;8.52;;
21168;SDS011;10742;51.816;8.662;2022-07-21T12:12:45;8.50;;;7.75;;
21168;SDS011;10742;51.816;8.662;2022-07-21T12:16:08;10.18;;;9.18;;
21168;SDS011;10742;51.816;8.662;2022-07-21T12:19:30;11.30;;;10.35;;
21168;SDS011;10742;51.816;8.662;2022-07-21T12:22:51;9.10;;;8.20;;
21168;SDS011;10742;51.816;8.662;2022-07-21T12:26:19;8.57;;;7.13;;
21168;SDS011;10742;51.816;8.662;2022-07-21T12:29:43;12.95;;;11.52;;
21168;SDS011;10742;51.816;8.662;2022-07-21T12:33:06;17.70;;;13.63;;
21168;SDS011;10742;51.816;8.662;2022-07-21T12:36:33;18.92;;;14.48;;
21168;SDS011;10742;51.816;8.662;2022-07-21T12:40:01;11.20;;;10.10;;
21168;SDS011;10742;51.816;8.662;2022-07-21T12:43:24;6.93;;;6.22;;
21168;SDS011;10742;51.816;8.662;2022-07-21T12:46:46;9.43;;;6.13;;
21168;SDS011;10742;51.816;8.662;2022-07-21T12:50:09;8.63;;;5.40;;
21168;SDS011;10742;51.816;8.662;2022-07-21T12:53:40;7.43;;;6.22;;
21168;SDS011;10742;51.816;8.662;2022-07-21T12:57:07;15.65;;;7.88;;
21168;SDS011;10742;51.816;8.662;2022-07-21T13:00:28;12.27;;;11.13;;
21168;SDS011;10742;51.816;8.662;2022-07-21T13:03:50;13.57;;;11.00;;
21168;SDS011;10742;51.816;8.662;2022-07-21T13:07:11;15.57;;;12.60;;
21168;SDS011;10742;51.816;8.662;2022-07-21T13:10:33;14.88;;;11.82;;
21168;SDS011;10742;51.816;8.662;2022-07-21T13:13:54;24.60;;;15.93;;
21168;SDS011;10742;51.816;8.662;2022-07-21T13:17:18;17.55;;;13.23;;
21168;SDS011;10742;51.816;8.662;2022-07-21T13:20:40;41.13;;;20.73;;
21168;SDS011;10742;51.816;8.662;2022-07-21T13:24:01;21.33;;;14.50;;
21168;SDS011;10742;51.816;8.662;2022-07-21T13:27:23;67.75;;;30.95;;
21168;SDS011;10742;51.816;8.662;2022-07-21T13:30:44;15.50;;;11.70;;
21168;SDS011;10742;51.816;8.662;2022-07-21T13:34:06;8.30;;;7.32;;
21168;SDS011;10742;51.816;8.662;2022-07-21T13:37:28;9.63;;;6.13;;
21168;SDS011;10742;51.816;8.662;2022-07-21T13:40:49;8.40;;;5.47;;
21168;SDS011;10742;51.816;8.662;2022-07-21T13:44:31;10.90;;;8.48;;
21168;SDS011;10742;51.816;8.662;2022-07-21T13:47:52;9.38;;;6.60;;
21168;SDS011;10742;51.816;8.662;2022-07-21T13:51:14;6.15;;;5.22;;
21168;SDS011;10742;51.816;8.662;2022-07-21T13:54:37;6.65;;;4.95;;
21168;SDS011;10742;51.816;8.662;2022-07-21T13:57:58;8.23;;;5.85;;
21168;SDS011;10742;51.816;8.662;2022-07-21T14:01:19;9.32;;;6.40;;
21168;SDS011;10742;51.816;8.662;2022-07-21T14:04:41;17.27;;;10.82;;
21168;SDS011;10742;51.816;8.662;2022-07-21T14:08:02;12.27;;;7.88;;
21168;SDS011;10742;51.816;8.662;2022-07-21T14:11:23;12.68;;;10.82;;
21168;SDS011;10742;51.816;8.662;2022-07-21T14:14:48;13.98;;;10.70;;
21168;SDS011;10742;51.816;8.662;2022-07-21T14:18:09;11.82;;;10.18;;
21168;SDS011;10742;51.816;8.662;2022-07-21T14:21:30;11.82;;;9.57;;
21168;SDS011;10742;51.816;8.662;2022-07-21T14:24:52;12.77;;;9.20;;
21168;SDS011;10742;51.816;8.662;2022-07-21T14:28:33;17.17;;;10.82;;
21168;SDS011;10742;51.816;8.662;2022-07-21T14:31:55;26.15;;;15.50;;
21168;SDS011;10742;51.816;8.662;2022-07-21T14:35:17;174.90;;;58.10;;
21168;SDS011;10742;51.816;8.662;2022-07-21T14:38:41;28.77;;;17.35;;
21168;SDS011;10742;51.816;8.662;2022-07-21T14:42:02;21.48;;;13.50;;
21168;SDS011;10742;51.816;8.662;2022-07-21T14:45:25;17.23;;;10.95;;
21168;SDS011;10742;51.816;8.662;2022-07-21T14:48:46;13.68;;;9.82;;
21168;SDS011;10742;51.816;8.662;2022-07-21T14:52:08;11.15;;;9.05;;
21168;SDS011;10742;51.816;8.662;2022-07-21T14:55:29;11.35;;;8.70;;
21168;SDS011;10742;51.816;8.662;2022-07-21T14:58:51;11.75;;;8.20;;
21168;SDS011;10742;51.816;8.662;2022-07-21T15:02:12;11.07;;;8.02;;
21168;SDS011;10742;51.816;8.662;2022-07-21T15:05:38;10.50;;;8.60;;
21168;SDS011;10742;51.816;8.662;2022-07-21T15:08:59;14.13;;;8.82;;
21168;SDS011;10742;51.816;8.662;2022-07-21T15:12:23;11.85;;;8.75;;
21168;SDS011;10742;51.816;8.662;2022-07-21T15:15:45;11.98;;;8.60;;
21168;SDS011;10742;51.816;8.662;2022-07-21T15:19:07;10.73;;;8.43;;
21168;SDS011;10742;51.816;8.662;2022-07-21T15:22:28;11.55;;;8.85;;
21168;SDS011;10742;51.816;8.662;2022-07-21T15:25:52;11.38;;;9.10;;
21168;SDS011;10742;51.816;8.662;2022-07-21T15:29:13;11.82;;;8.45;;
21168;SDS011;10742;51.816;8.662;2022-07-21T15:32:35;17.83;;;8.63;;
21168;SDS011;10742;51.816;8.662;2022-07-21T15:35:56;13.98;;;9.07;;
21168;SDS011;10742;51.816;8.662;2022-07-21T15:39:17;10.60;;;8.55;;
21168;SDS011;10742;51.816;8.662;2022-07-21T15:42:42;15.07;;;8.85;;
21168;SDS011;10742;51.816;8.662;2022-07-21T15:46:03;17.17;;;10.65;;
21168;SDS011;10742;51.816;8.662;2022-07-21T15:49:25;12.43;;;8.93;;
21168;SDS011;10742;51.816;8.662;2022-07-21T15:52:47;13.10;;;8.32;;
21168;SDS011;10742;51.816;8.662;2022-07-21T15:56:08;18.35;;;9.90;;
21168;SDS011;10742;51.816;8.662;2022-07-21T15:59:30;18.85;;;11.60;;
21168;SDS011;10742;51.816;8.662;2022-07-21T16:02:57;18.92;;;11.23;;
21168;SDS011;10742;51.816;8.662;2022-07-21T16:06:19;18.55;;;10.73;;
21168;SDS011;10742;51.816;8.662;2022-07-21T16:09:41;14.27;;;9.23;;
21168;SDS011;10742;51.816;8.662;2022-07-21T16:13:03;21.23;;;10.88;;
21168;SDS011;10742;51.816;8.662;2022-07-21T16:16:25;20.10;;;12.45;;
21168;SDS011;10742;51.816;8.662;2022-07-21T16:19:46;25.20;;;15.30;;
21168;SDS011;10742;51.816;8.662;2022-07-21T16:23:08;49.97;;;23.98;;
21168;SDS011;10742;51.816;8.662;2022-07-21T16:26:29;98.80;;;34.03;;
21168;SDS011;10742;51.816;8.662;2022-07-21T16:29:51;245.02;;;82.53;;
21168;SDS011;10742;51.816;8.662;2022-07-21T16:33:12;992.78;;;255.80;;
21168;SDS011;10742;51.816;8.662;2022-07-21T16:36:34;507.42;;;146.95;;
21168;SDS011;10742;51.816;8.662;2022-07-21T16:39:55;1945.35;;;446.55;;
21168;SDS011;10742;51.816;8.662;2022-07-21T16:43:17;1663.93;;;387.90;;
21168;SDS011;10742;51.816;8.662;2022-07-21T16:46:39;1906.22;;;461.00;;
21168;SDS011;10742;51.816;8.662;2022-07-21T16:50:00;1833.63;;;431.58;;
21168;SDS011;10742;51.816;8.662;2022-07-21T16:53:21;1999.90;;;688.67;;
21168;SDS011;10742;51.816;8.662;2022-07-21T16:56:43;1999.90;;;576.83;;
21168;SDS011;10742;51.816;8.662;2022-07-21T17:00:05;1999.90;;;729.75;;
21168;SDS011;10742;51.816;8.662;2022-07-21T17:03:33;1999.90;;;722.15;;
21168;SDS011;10742;51.816;8.662;2022-07-21T17:06:54;1999.90;;;723.78;;
21168;SDS011;10742;51.816;8.662;2022-07-21T17:10:16;1999.90;;;886.42;;
21168;SDS011;10742;51.816;8.662;2022-07-21T17:13:37;1999.90;;;967.47;;
21168;SDS011;10742;51.816;8.662;2022-07-21T17:16:59;1999.90;;;992.65;;
21168;SDS011;10742;51.816;8.662;2022-07-21T17:20:20;1999.90;;;999.90;;
21168;SDS011;10742;51.816;8.662;2022-07-21T17:23:42;1999.90;;;999.90;;
21168;SDS011;10742;51.816;8.662;2022-07-21T17:27:04;1999.90;;;999.90;;
21168;SDS011;10742;51.816;8.662;2022-07-21T17:30:25;1999.90;;;999.90;;
21168;SDS011;10742;51.816;8.662;2022-07-21T17:33:47;1999.90;;;999.90;;
21168;SDS011;10742;51.816;8.662;2022-07-21T17:37:08;1999.90;;;999.90;;
21168;SDS011;10742;51.816;8.662;2022-07-21T17:40:29;1999.90;;;999.90;;
21168;SDS011;10742;51.816;8.662;2022-07-21T17:43:51;1999.90;;;999.90;;
21168;SDS011;10742;51.816;8.662;2022-07-21T17:47:12;1999.90;;;999.90;;
21168;SDS011;10742;51.816;8.662;2022-07-21T17:50:34;1999.90;;;999.90;;
21168;SDS011;10742;51.816;8.662;2022-07-21T17:53:55;1999.90;;;999.90;;
21168;SDS011;10742;51.816;8.662;2022-07-21T17:57:17;1999.90;;;999.90;;
21168;SDS011;10742;51.816;8.662;2022-07-21T18:00:56;1999.90;;;999.90;;
21168;SDS011;10742;51.816;8.662;2022-07-21T18:04:20;1999.90;;;999.90;;
21168;SDS011;10742;51.816;8.662;2022-07-21T18:07:42;1999.90;;;999.90;;
21168;SDS011;10742;51.816;8.662;2022-07-21T18:11:03;1999.90;;;999.90;;
21168;SDS011;10742;51.816;8.662;2022-07-21T18:14:25;1999.90;;;999.90;;
21168;SDS011;10742;51.816;8.662;2022-07-21T18:17:47;1999.90;;;999.90;;
21168;SDS011;10742;51.816;8.662;2022-07-21T18:21:08;1999.90;;;999.90;;
21168;SDS011;10742;51.816;8.662;2022-07-21T18:24:30;1999.90;;;999.90;;
21168;SDS011;10742;51.816;8.662;2022-07-21T18:27:52;1999.90;;;999.90;;
21168;SDS011;10742;51.816;8.662;2022-07-21T18:31:14;1999.90;;;999.90;;
21168;SDS011;10742;51.816;8.662;2022-07-21T18:34:36;1999.90;;;999.90;;
21168;SDS011;10742;51.816;8.662;2022-07-21T18:37:58;1999.90;;;999.90;;
21168;SDS011;10742;51.816;8.662;2022-07-21T18:41:19;1999.90;;;999.90;;
21168;SDS011;10742;51.816;8.662;2022-07-21T18:44:41;1999.90;;;999.90;;
21168;SDS011;10742;51.816;8.662;2022-07-21T18:48:03;1999.90;;;999.90;;
21168;SDS011;10742;51.816;8.662;2022-07-21T18:51:42;1999.90;;;999.90;;
21168;SDS011;10742;51.816;8.662;2022-07-21T18:55:05;1999.90;;;999.90;;
21168;SDS011;10742;51.816;8.662;2022-07-21T18:58:28;1999.90;;;999.90;;
21168;SDS011;10742;51.816;8.662;2022-07-21T19:01:50;1999.90;;;999.90;;
21168;SDS011;10742;51.816;8.662;2022-07-21T19:05:12;1999.90;;;999.90;;
21168;SDS011;10742;51.816;8.662;2022-07-21T19:08:34;1999.90;;;999.90;;
21168;SDS011;10742;51.816;8.662;2022-07-21T19:11:56;1999.90;;;999.90;;
21168;SDS011;10742;51.816;8.662;2022-07-21T19:15:17;1999.90;;;999.90;;
21168;SDS011;10742;51.816;8.662;2022-07-21T19:18:39;1999.90;;;999.90;;
21168;SDS011;10742;51.816;8.662;2022-07-21T19:22:00;1999.90;;;999.90;;
21168;SDS011;10742;51.816;8.662;2022-07-21T19:25:22;1999.90;;;999.90;;
21168;SDS011;10742;51.816;8.662;2022-07-21T19:28:44;1999.90;;;999.90;;
21168;SDS011;10742;51.816;8.662;2022-07-21T19:32:08;1999.90;;;999.90;;
21168;SDS011;10742;51.816;8.662;2022-07-21T19:35:29;1999.90;;;999.90;;